Time,TemperatureF,DewpointF,PressureIn,WindDirection,WindDirectionDegrees,WindSpeedMPH,WindSpeedGustMPH,Humidity,HourlyPrecipIn,Conditions,Clouds,dailyrainin,SoftwareType,DateUTC
2013-06-02 00:00:00,71.5,60.4,29.89,SSW,198,0.0,0.0,68,0.00,,---,0.00,VWS V14.01,2013-06-02 04:00:00,
2013-06-02 00:01:00,71.5,60.4,29.89,SW,222,0.0,0.0,68,0.00,,---,0.00,VWS V14.01,2013-06-02 04:01:00,
2013-06-02 00:06:00,71.5,60.4,29.89,SSW,195,0.0,0.0,68,0.00,,---,0.00,VWS V14.01,2013-06-02 04:06:00,
2013-06-02 00:11:00,71.5,60.4,29.89,SSW,197,0.0,0.0,68,0.00,,---,0.00,VWS V14.01,2013-06-02 04:11:00,
2013-06-02 00:16:00,71.5,60.4,29.89,South,179,0.0,0.0,68,0.00,,---,0.00,VWS V14.01,2013-06-02 04:16:00,
2013-06-02 00:21:00,71.5,60.4,29.89,South,171,0.0,0.0,68,0.00,,---,0.00,VWS V14.01,2013-06-02 04:21:00,
2013-06-02 00:26:00,71.5,60.4,29.89,South,175,0.0,0.0,68,0.00,,---,0.00,VWS V14.01,2013-06-02 04:26:00,
2013-06-02 00:31:00,71.3,60.2,29.89,SSW,193,0.0,0.0,68,0.00,,---,0.00,VWS V14.01,2013-06-02 04:31:00,
2013-06-02 00:36:00,71.3,59.8,29.86,SSW,193,0.0,0.0,67,0.00,,---,0.00,VWS V14.01,2013-06-02 04:36:00,
2013-06-02 00:41:00,71.3,59.8,29.86,SSW,204,0.0,0.0,67,0.00,,---,0.00,VWS V14.01,2013-06-02 04:41:00,
2013-06-02 00:46:00,71.3,59.8,29.86,SSW,210,0.0,0.0,67,0.00,,---,0.00,VWS V14.01,2013-06-02 04:46:00,
2013-06-02 00:51:00,71.1,60.0,29.89,SSW,210,0.0,0.0,68,0.00,,---,0.00,VWS V14.01,2013-06-02 04:51:00,
2013-06-02 00:56:00,70.8,60.1,29.89,SSW,213,0.0,0.0,69,0.00,,---,0.00,VWS V14.01,2013-06-02 04:56:00,
2013-06-02 01:01:00,70.6,59.9,29.89,SSW,210,0.0,0.0,69,0.00,,---,0.00,VWS V14.01,2013-06-02 05:01:00,
2013-06-02 01:06:00,70.8,59.7,29.86,South,189,0.0,2.7,68,0.00,,---,0.00,VWS V14.01,2013-06-02 05:06:00,
2013-06-02 01:11:00,70.6,59.9,29.86,South,187,0.0,0.0,69,0.00,,---,0.00,VWS V14.01,2013-06-02 05:11:00,
2013-06-02 01:16:00,70.6,59.9,29.86,SSW,197,0.0,0.0,69,0.00,,---,0.00,VWS V14.01,2013-06-02 05:16:00,
2013-06-02 01:21:00,70.4,59.8,29.86,WSW,250,3.6,3.6,69,0.00,,---,0.00,VWS V14.01,2013-06-02 05:21:00,
2013-06-02 01:26:00,70.4,60.2,29.86,South,189,4.0,4.5,70,0.00,,---,0.00,VWS V14.01,2013-06-02 05:26:00,
2013-06-02 01:31:00,70.2,60.4,29.86,SSW,205,0.0,0.0,71,0.00,,---,0.00,VWS V14.01,2013-06-02 05:31:00,
2013-06-02 01:36:00,70.2,60.4,29.86,South,190,4.9,4.9,71,0.00,,---,0.00,VWS V14.01,2013-06-02 05:36:00,
2013-06-02 01:41:00,70.2,60.4,29.86,SE,140,2.7,3.6,71,0.00,,---,0.00,VWS V14.01,2013-06-02 05:41:00,
2013-06-02 01:46:00,70.2,60.4,29.86,WSW,238,2.7,2.7,71,0.00,,---,0.00,VWS V14.01,2013-06-02 05:46:00,
2013-06-02 01:51:00,70.4,60.6,29.86,SSW,204,6.9,6.9,71,0.00,,---,0.00,VWS V14.01,2013-06-02 05:51:00,
2013-06-02 01:56:00,70.4,60.6,29.86,SSW,209,3.6,3.6,71,0.00,,---,0.00,VWS V14.01,2013-06-02 05:56:00,
2013-06-02 02:01:00,70.4,60.2,29.86,SW,221,0.0,0.0,70,0.00,,---,0.00,VWS V14.01,2013-06-02 06:01:00,
2013-06-02 02:06:00,70.4,60.2,29.86,WSW,241,3.1,3.1,70,0.00,,---,0.00,VWS V14.01,2013-06-02 06:06:00,
2013-06-02 02:11:00,70.2,60.4,29.86,SSW,205,4.9,4.9,71,0.00,,---,0.00,VWS V14.01,2013-06-02 06:11:00,
2013-06-02 02:16:00,70.0,60.2,29.86,WSW,258,3.6,3.6,71,0.00,,---,0.00,VWS V14.01,2013-06-02 06:16:00,
2013-06-02 02:21:00,70.0,60.6,29.83,SW,217,5.4,5.4,72,0.00,,---,0.00,VWS V14.01,2013-06-02 06:21:00,
2013-06-02 02:26:00,69.9,60.4,29.83,SW,233,2.7,3.6,72,0.00,,---,0.00,VWS V14.01,2013-06-02 06:26:00,
2013-06-02 02:31:00,69.9,60.8,29.83,South,180,3.1,3.1,73,0.00,,---,0.00,VWS V14.01,2013-06-02 06:31:00,
2013-06-02 02:36:00,69.9,60.8,29.83,WSW,256,3.6,3.6,73,0.00,,---,0.00,VWS V14.01,2013-06-02 06:36:00,
2013-06-02 02:41:00,69.9,60.8,29.83,WSW,244,4.5,4.5,73,0.00,,---,0.00,VWS V14.01,2013-06-02 06:41:00,
2013-06-02 02:46:00,69.9,60.8,29.83,West,260,4.5,5.4,73,0.00,,---,0.00,VWS V14.01,2013-06-02 06:46:00,
2013-06-02 02:51:00,69.9,61.2,29.83,SW,233,3.1,3.6,74,0.00,,---,0.00,VWS V14.01,2013-06-02 06:51:00,
2013-06-02 02:56:00,70.0,61.0,29.83,WSW,249,3.1,3.1,73,0.00,,---,0.00,VWS V14.01,2013-06-02 06:56:00,
2013-06-02 03:01:00,70.0,61.0,29.83,WSW,238,0.0,0.0,73,0.00,,---,0.00,VWS V14.01,2013-06-02 07:01:00,
2013-06-02 03:06:00,70.2,61.2,29.83,West,259,4.0,4.0,73,0.00,,---,0.00,VWS V14.01,2013-06-02 07:06:00,
2013-06-02 03:11:00,70.0,61.0,29.83,WSW,242,0.0,0.0,73,0.00,,---,0.00,VWS V14.01,2013-06-02 07:11:00,
2013-06-02 03:16:00,69.9,60.8,29.83,South,185,0.0,0.0,73,0.00,,---,0.00,VWS V14.01,2013-06-02 07:16:00,
2013-06-02 03:21:00,70.0,61.0,29.83,SSW,194,0.0,0.0,73,0.00,,---,0.00,VWS V14.01,2013-06-02 07:21:00,
2013-06-02 03:26:00,70.0,61.4,29.83,WSW,246,0.0,0.0,74,0.00,,---,0.00,VWS V14.01,2013-06-02 07:26:00,
2013-06-02 03:31:00,70.0,61.4,29.83,SW,235,3.6,3.6,74,0.00,,---,0.00,VWS V14.01,2013-06-02 07:31:00,
2013-06-02 03:36:00,70.4,61.3,29.83,South,188,2.7,2.7,73,0.00,,---,0.00,VWS V14.01,2013-06-02 07:36:00,
2013-06-02 03:41:00,70.4,61.3,29.83,SSW,209,2.7,3.1,73,0.00,,---,0.00,VWS V14.01,2013-06-02 07:41:00,
2013-06-02 03:46:00,70.0,61.4,29.83,SW,223,0.0,0.0,74,0.00,,---,0.00,VWS V14.01,2013-06-02 07:46:00,
2013-06-02 03:51:00,69.7,61.0,29.83,South,173,2.7,2.7,74,0.00,,---,0.00,VWS V14.01,2013-06-02 07:51:00,
2013-06-02 03:56:00,69.9,61.6,29.83,SSE,151,3.6,3.6,75,0.00,,---,0.00,VWS V14.01,2013-06-02 07:56:00,
2013-06-02 04:01:00,69.3,61.4,29.83,NE,42,2.7,2.7,76,0.00,,---,0.00,VWS V14.01,2013-06-02 08:01:00,
2013-06-02 04:06:00,69.3,61.8,29.83,West,269,0.0,3.1,77,0.00,,---,0.00,VWS V14.01,2013-06-02 08:06:00,
2013-06-02 04:11:00,69.5,61.6,29.83,SSW,208,0.0,0.0,76,0.00,,---,0.00,VWS V14.01,2013-06-02 08:11:00,
2013-06-02 04:16:00,69.5,62.0,29.83,WNW,290,0.0,0.0,77,0.00,,---,0.00,VWS V14.01,2013-06-02 08:16:00,
2013-06-02 04:21:00,69.5,62.0,29.83,SSW,210,0.0,0.0,77,0.00,,---,0.00,VWS V14.01,2013-06-02 08:21:00,
2013-06-02 04:26:00,69.3,61.8,29.83,East,93,0.0,0.0,77,0.00,,---,0.00,VWS V14.01,2013-06-02 08:26:00,
2013-06-02 04:31:00,69.5,62.0,29.83,SW,236,0.0,0.0,77,0.00,,---,0.00,VWS V14.01,2013-06-02 08:31:00,
2013-06-02 04:36:00,69.7,62.2,29.83,South,179,0.0,0.0,77,0.00,,---,0.00,VWS V14.01,2013-06-02 08:36:00,
2013-06-02 04:41:00,69.5,62.0,29.83,ESE,120,0.0,0.0,77,0.00,,---,0.00,VWS V14.01,2013-06-02 08:41:00,
2013-06-02 04:46:00,69.5,62.3,29.83,South,171,0.0,0.0,78,0.00,,---,0.00,VWS V14.01,2013-06-02 08:46:00,
2013-06-02 04:51:00,69.1,62.0,29.83,East,87,0.0,0.0,78,0.00,,---,0.00,VWS V14.01,2013-06-02 08:51:00,
2013-06-02 04:56:00,68.8,62.0,29.83,SSE,164,0.0,0.0,79,0.00,,---,0.00,VWS V14.01,2013-06-02 08:56:00,
2013-06-02 05:01:00,68.8,62.4,29.83,SSE,156,0.0,0.0,80,0.00,,---,0.00,VWS V14.01,2013-06-02 09:01:00,
2013-06-02 05:06:00,68.8,62.4,29.83,SE,136,0.0,0.0,80,0.00,,---,0.00,VWS V14.01,2013-06-02 09:06:00,
2013-06-02 05:11:00,68.8,62.4,29.83,SE,136,0.0,0.0,80,0.00,,---,0.00,VWS V14.01,2013-06-02 09:11:00,
2013-06-02 05:16:00,68.6,62.2,29.83,SE,136,0.0,0.0,80,0.00,,---,0.00,VWS V14.01,2013-06-02 09:16:00,
2013-06-02 05:21:00,68.6,62.5,29.83,SE,136,0.0,0.0,81,0.00,,---,0.00,VWS V14.01,2013-06-02 09:21:00,
2013-06-02 05:26:00,68.4,62.4,29.83,SW,224,0.0,0.0,81,0.00,,---,0.00,VWS V14.01,2013-06-02 09:26:00,
2013-06-02 05:31:00,68.4,62.4,29.83,SW,231,0.0,0.0,81,0.00,,---,0.00,VWS V14.01,2013-06-02 09:31:00,
2013-06-02 05:36:00,68.2,62.2,29.83,SSW,203,0.0,0.0,81,0.00,,---,0.00,VWS V14.01,2013-06-02 09:36:00,
2013-06-02 05:41:00,68.2,62.5,29.83,SW,236,0.0,0.0,82,0.00,,---,0.00,VWS V14.01,2013-06-02 09:41:00,
2013-06-02 05:46:00,68.1,62.4,29.83,SSW,207,0.0,0.0,82,0.00,,---,0.00,VWS V14.01,2013-06-02 09:46:00,
2013-06-02 05:51:00,68.1,62.4,29.83,SSW,207,0.0,0.0,82,0.00,,---,0.00,VWS V14.01,2013-06-02 09:51:00,
2013-06-02 05:56:00,67.9,62.5,29.83,South,182,2.7,2.7,83,0.00,,---,0.00,VWS V14.01,2013-06-02 09:56:00,
2013-06-02 06:01:00,67.9,62.5,29.83,WSW,241,0.0,0.0,83,0.00,,---,0.00,VWS V14.01,2013-06-02 10:01:00,
2013-06-02 06:06:00,67.9,62.5,29.83,SSW,203,0.0,0.0,83,0.00,,---,0.00,VWS V14.01,2013-06-02 10:06:00,
2013-06-02 06:11:00,68.1,63.0,29.83,SSE,151,0.0,0.0,84,0.00,,---,0.00,VWS V14.01,2013-06-02 10:11:00,
2013-06-02 06:16:00,68.2,63.2,29.83,WSW,242,0.0,0.0,84,0.00,,---,0.00,VWS V14.01,2013-06-02 10:16:00,
2013-06-02 06:21:00,68.4,63.1,29.83,West,267,0.0,0.0,83,0.00,,---,0.00,VWS V14.01,2013-06-02 10:21:00,
2013-06-02 06:26:00,68.4,62.7,29.83,SW,233,0.0,0.0,82,0.00,,---,0.00,VWS V14.01,2013-06-02 10:26:00,
2013-06-02 06:31:00,68.6,62.9,29.83,South,189,0.0,0.0,82,0.00,,---,0.00,VWS V14.01,2013-06-02 10:31:00,
2013-06-02 06:36:00,68.6,63.2,29.83,South,189,0.0,0.0,83,0.00,,---,0.00,VWS V14.01,2013-06-02 10:36:00,
2013-06-02 06:41:00,68.6,63.2,29.83,SW,216,0.0,0.0,83,0.00,,---,0.00,VWS V14.01,2013-06-02 10:41:00,
2013-06-02 06:46:00,68.6,63.2,29.83,South,172,0.0,0.0,83,0.00,,---,0.00,VWS V14.01,2013-06-02 10:46:00,
2013-06-02 06:51:00,68.8,63.4,29.83,SE,140,0.0,0.0,83,0.00,,---,0.00,VWS V14.01,2013-06-02 10:51:00,
2013-06-02 06:56:00,69.0,63.6,29.83,South,185,0.0,0.0,83,0.00,,---,0.00,VWS V14.01,2013-06-02 10:56:00,
2013-06-02 07:01:00,69.7,63.6,29.83,SE,131,0.0,0.0,81,0.00,,---,0.00,VWS V14.01,2013-06-02 11:01:00,
2013-06-02 07:06:00,70.4,63.2,29.83,SE,132,0.0,0.0,78,0.00,,---,0.00,VWS V14.01,2013-06-02 11:06:00,
2013-06-02 07:11:00,70.8,62.5,29.83,SSE,162,4.5,4.5,75,0.00,,---,0.00,VWS V14.01,2013-06-02 11:11:00,
2013-06-02 07:16:00,70.9,62.6,29.83,SSE,168,0.0,0.0,75,0.00,,---,0.00,VWS V14.01,2013-06-02 11:16:00,
2013-06-02 07:21:00,71.3,62.6,29.83,SE,125,4.0,5.4,74,0.00,,---,0.00,VWS V14.01,2013-06-02 11:21:00,
2013-06-02 07:26:00,71.7,62.5,29.83,ENE,73,4.0,4.0,73,0.00,,---,0.00,VWS V14.01,2013-06-02 11:26:00,
2013-06-02 07:31:00,71.5,62.0,29.83,ESE,116,0.0,0.0,72,0.00,,---,0.00,VWS V14.01,2013-06-02 11:31:00,
2013-06-02 07:36:00,71.7,62.2,29.83,ESE,123,0.0,0.0,72,0.00,,---,0.00,VWS V14.01,2013-06-02 11:36:00,
2013-06-02 07:41:00,71.7,62.5,29.83,SE,128,4.0,4.0,73,0.00,,---,0.00,VWS V14.01,2013-06-02 11:41:00,
2013-06-02 07:46:00,71.7,62.2,29.83,ESE,115,0.0,0.0,72,0.00,,---,0.00,VWS V14.01,2013-06-02 11:46:00,
2013-06-02 07:51:00,71.7,62.2,29.83,SE,137,0.0,0.0,72,0.00,,---,0.00,VWS V14.01,2013-06-02 11:51:00,
2013-06-02 07:56:00,71.3,62.2,29.83,ESE,113,0.0,3.6,73,0.00,,---,0.00,VWS V14.01,2013-06-02 11:56:00,
2013-06-02 08:01:00,71.5,62.0,29.83,East,94,0.0,0.0,72,0.00,,---,0.00,VWS V14.01,2013-06-02 12:01:00,
2013-06-02 08:06:00,71.8,62.3,29.83,South,180,0.0,3.1,72,0.00,,---,0.00,VWS V14.01,2013-06-02 12:06:00,
2013-06-02 08:11:00,72.9,63.4,29.83,SSE,159,0.0,0.0,72,0.00,,---,0.00,VWS V14.01,2013-06-02 12:11:00,
2013-06-02 08:16:00,74.2,63.0,29.83,WSW,238,4.0,4.0,68,0.00,,---,0.00,VWS V14.01,2013-06-02 12:16:00,
2013-06-02 08:21:00,75.6,62.6,29.83,ESE,119,0.0,0.0,64,0.00,,---,0.00,VWS V14.01,2013-06-02 12:21:00,
2013-06-02 08:26:00,74.4,61.8,29.83,East,79,0.0,0.0,65,0.00,,---,0.00,VWS V14.01,2013-06-02 12:26:00,
2013-06-02 08:31:00,74.0,62.4,29.83,SSE,156,6.3,6.3,67,0.00,,---,0.00,VWS V14.01,2013-06-02 12:31:00,
2013-06-02 08:36:00,75.6,62.6,29.83,SSW,212,4.5,4.5,64,0.00,,---,0.00,VWS V14.01,2013-06-02 12:36:00,
2013-06-02 08:41:00,78.3,63.8,29.83,WSW,242,4.5,4.5,61,0.00,,---,0.00,VWS V14.01,2013-06-02 12:41:00,
2013-06-02 08:46:00,78.0,63.0,29.83,SSW,203,2.7,3.1,60,0.00,,---,0.00,VWS V14.01,2013-06-02 12:46:00,
2013-06-02 08:51:00,77.2,62.8,29.83,SSW,207,2.7,5.8,61,0.00,,---,0.00,VWS V14.01,2013-06-02 12:51:00,
2013-06-02 08:56:00,76.9,62.4,29.83,SW,228,0.0,0.0,61,0.00,,---,0.00,VWS V14.01,2013-06-02 12:56:00,
2013-06-02 09:01:00,75.6,62.2,29.83,WSW,254,0.0,0.0,63,0.00,,---,0.00,VWS V14.01,2013-06-02 13:01:00,
2013-06-02 09:06:00,75.1,62.1,29.83,SW,220,4.5,4.9,64,0.00,,---,0.00,VWS V14.01,2013-06-02 13:06:00,
2013-06-02 09:11:00,76.3,62.4,29.83,SSW,201,4.5,4.5,62,0.00,,---,0.00,VWS V14.01,2013-06-02 13:11:00,
2013-06-02 09:16:00,79.4,64.3,29.83,SW,222,5.4,5.4,60,0.00,,---,0.00,VWS V14.01,2013-06-02 13:16:00,
2013-06-02 09:21:00,79.6,63.5,29.83,SSE,165,0.0,0.0,58,0.00,,---,0.00,VWS V14.01,2013-06-02 13:21:00,
2013-06-02 09:26:00,78.7,63.2,29.83,West,261,6.3,6.7,59,0.00,,---,0.00,VWS V14.01,2013-06-02 13:26:00,
2013-06-02 09:31:00,79.0,64.0,29.83,SW,218,4.5,8.3,60,0.00,,---,0.00,VWS V14.01,2013-06-02 13:31:00,
2013-06-02 09:36:00,81.7,65.0,29.83,SW,219,6.7,6.7,57,0.00,,---,0.00,VWS V14.01,2013-06-02 13:36:00,
2013-06-02 09:41:00,80.8,63.2,29.83,WSW,257,4.0,6.7,55,0.00,,---,0.00,VWS V14.01,2013-06-02 13:41:00,
2013-06-02 09:46:00,80.8,63.2,29.83,SSW,195,3.1,4.9,55,0.00,,---,0.00,VWS V14.01,2013-06-02 13:46:00,
2013-06-02 09:51:00,79.8,64.2,29.83,West,280,0.0,4.9,59,0.00,,---,0.00,VWS V14.01,2013-06-02 13:51:00,
2013-06-02 09:55:00,78.7,63.2,29.83,WSW,243,4.9,6.7,59,0.00,,---,0.00,VWS V14.01,2013-06-02 13:55:00,
2013-06-02 10:00:00,78.0,63.0,29.83,WSW,240,3.1,4.0,60,0.00,,---,0.00,VWS V14.01,2013-06-02 14:00:00,
2013-06-02 10:05:00,79.4,63.8,29.83,SW,214,3.6,4.0,59,0.00,,---,0.00,VWS V14.01,2013-06-02 14:05:00,
2013-06-02 10:10:00,80.1,64.5,29.83,SW,231,2.7,4.5,59,0.00,,---,0.00,VWS V14.01,2013-06-02 14:10:00,
2013-06-02 10:15:00,80.3,64.2,29.83,WSW,247,3.1,3.1,58,0.00,,---,0.00,VWS V14.01,2013-06-02 14:15:00,
2013-06-02 10:20:00,82.3,65.5,29.83,SSE,168,3.1,3.1,57,0.00,,---,0.00,VWS V14.01,2013-06-02 14:20:00,
2013-06-02 10:26:00,81.9,64.2,29.83,SE,141,2.7,6.3,55,0.00,,---,0.00,VWS V14.01,2013-06-02 14:26:00,
2013-06-02 10:30:00,80.5,62.8,29.83,South,191,4.5,8.7,55,0.00,,---,0.00,VWS V14.01,2013-06-02 14:30:00,
2013-06-02 10:35:00,79.9,63.9,29.83,SSW,211,3.1,5.8,58,0.00,,---,0.00,VWS V14.01,2013-06-02 14:35:00,
2013-06-02 10:40:00,79.8,63.7,29.83,SSE,165,3.6,7.4,58,0.00,,---,0.00,VWS V14.01,2013-06-02 14:40:00,
2013-06-02 10:45:00,80.7,63.0,29.83,SSW,206,4.0,7.4,55,0.00,,---,0.00,VWS V14.01,2013-06-02 14:45:00,
2013-06-02 10:50:00,80.8,63.2,29.83,SSW,208,4.0,5.8,55,0.00,,---,0.00,VWS V14.01,2013-06-02 14:50:00,
2013-06-02 10:55:00,79.6,63.0,29.83,West,267,4.9,5.4,57,0.00,,---,0.00,VWS V14.01,2013-06-02 14:55:00,
2013-06-02 11:00:00,78.7,63.2,29.83,South,182,3.1,4.5,59,0.00,,---,0.00,VWS V14.01,2013-06-02 15:00:00,
2013-06-02 11:05:00,77.6,64.0,29.86,SSE,165,3.1,4.0,63,0.00,,---,0.00,VWS V14.01,2013-06-02 15:05:00,
2013-06-02 11:10:00,76.9,63.8,29.86,SSW,210,0.0,4.0,64,0.00,,---,0.00,VWS V14.01,2013-06-02 15:10:00,
2013-06-02 11:15:00,76.5,63.9,29.86,South,184,3.6,4.5,65,0.00,,---,0.00,VWS V14.01,2013-06-02 15:15:00,
2013-06-02 11:20:00,76.9,63.3,29.86,SW,217,5.8,7.8,63,0.00,,---,0.00,VWS V14.01,2013-06-02 15:20:00,
2013-06-02 11:25:00,77.1,61.7,29.86,West,261,7.8,13.4,59,0.00,,---,0.00,VWS V14.01,2013-06-02 15:25:00,
2013-06-02 11:30:00,77.2,62.3,29.86,SW,217,3.1,5.8,60,0.00,,---,0.00,VWS V14.01,2013-06-02 15:30:00,
2013-06-02 11:35:00,77.2,62.3,29.86,West,261,6.7,6.7,60,0.00,,---,0.00,VWS V14.01,2013-06-02 15:35:00,
2013-06-02 11:40:00,77.8,62.3,29.86,WSW,251,9.2,10.5,59,0.00,,---,0.00,VWS V14.01,2013-06-02 15:40:00,
2013-06-02 11:45:00,78.5,63.0,29.86,WSW,245,2.7,6.9,59,0.00,,---,0.00,VWS V14.01,2013-06-02 15:45:00,
2013-06-02 11:50:00,79.2,62.7,29.86,WSW,242,3.1,5.8,57,0.00,,---,0.00,VWS V14.01,2013-06-02 15:50:00,
2013-06-02 11:55:00,80.1,62.5,29.86,SW,235,3.6,4.9,55,0.00,,---,0.00,VWS V14.01,2013-06-02 15:55:00,
2013-06-02 12:00:00,81.0,63.3,29.86,SSW,206,3.6,4.9,55,0.00,,---,0.00,VWS V14.01,2013-06-02 16:00:00,
2013-06-02 12:05:00,80.7,63.0,29.86,SSW,207,3.1,5.4,55,0.00,,---,0.00,VWS V14.01,2013-06-02 16:05:00,
2013-06-02 12:10:00,79.2,61.7,29.86,WSW,257,4.0,5.8,55,0.00,,---,0.00,VWS V14.01,2013-06-02 16:10:00,
2013-06-02 12:15:00,77.8,62.3,29.86,WSW,252,5.8,8.7,59,0.00,,---,0.00,VWS V14.01,2013-06-02 16:15:00,
2013-06-02 12:20:00,77.6,62.6,29.86,SW,216,4.0,6.7,60,0.00,,---,0.00,VWS V14.01,2013-06-02 16:20:00,
2013-06-02 12:25:00,77.8,62.8,29.86,WSW,237,4.9,5.4,60,0.00,,---,0.00,VWS V14.01,2013-06-02 16:25:00,
2013-06-02 12:30:00,77.4,61.5,29.86,WSW,247,7.4,7.4,58,0.00,,---,0.00,VWS V14.01,2013-06-02 16:30:00,
2013-06-02 12:35:00,79.4,63.8,29.86,SW,230,6.3,10.1,59,0.00,,---,0.00,VWS V14.01,2013-06-02 16:35:00,
2013-06-02 12:40:00,81.0,63.3,29.86,WSW,242,6.7,8.3,55,0.00,,---,0.00,VWS V14.01,2013-06-02 16:40:00,
2013-06-02 12:45:00,80.8,61.0,29.86,WNW,285,10.1,11.0,51,0.00,,---,0.00,VWS V14.01,2013-06-02 16:45:00,
2013-06-02 12:50:00,83.2,63.2,29.86,WSW,251,9.2,10.5,51,0.00,,---,0.00,VWS V14.01,2013-06-02 16:50:00,
2013-06-02 12:55:00,84.6,62.8,29.86,WSW,249,12.5,12.5,48,0.00,,---,0.00,VWS V14.01,2013-06-02 16:55:00,
2013-06-02 13:00:00,83.5,62.4,29.86,West,265,6.3,11.6,49,0.00,,---,0.00,VWS V14.01,2013-06-02 17:00:00,
2013-06-02 13:05:00,83.0,61.9,29.83,WNW,294,4.0,9.6,49,0.00,,---,0.00,VWS V14.01,2013-06-02 17:05:00,
2013-06-02 13:10:00,82.3,61.2,29.83,SW,235,5.8,9.6,49,0.00,,---,0.00,VWS V14.01,2013-06-02 17:10:00,
2013-06-02 13:15:00,81.7,61.3,29.83,West,274,9.2,9.2,50,0.00,,---,0.00,VWS V14.01,2013-06-02 17:15:00,
2013-06-02 13:20:00,80.3,59.4,29.86,SW,229,4.0,8.7,49,0.00,,---,0.00,VWS V14.01,2013-06-02 17:20:00,
2013-06-02 13:25:00,79.9,59.7,29.86,WSW,255,6.9,11.6,50,0.00,,---,0.00,VWS V14.01,2013-06-02 17:25:00,
2013-06-02 13:30:00,80.8,60.5,29.86,WSW,251,5.8,6.7,50,0.00,,---,0.00,VWS V14.01,2013-06-02 17:30:00,
2013-06-02 13:35:00,81.6,60.6,29.83,West,266,6.9,15.9,49,0.00,,---,0.00,VWS V14.01,2013-06-02 17:35:00,
2013-06-02 13:40:00,83.2,62.0,29.83,WSW,238,8.3,12.1,49,0.00,,---,0.00,VWS V14.01,2013-06-02 17:40:00,
2013-06-02 13:45:00,85.0,63.1,29.83,WNW,283,3.6,11.0,48,0.00,,---,0.00,VWS V14.01,2013-06-02 17:45:00,
2013-06-02 13:50:00,85.3,63.4,29.83,WSW,238,8.3,14.3,48,0.00,,---,0.00,VWS V14.01,2013-06-02 17:50:00,
2013-06-02 13:55:00,85.9,63.3,29.83,WSW,257,13.0,13.9,47,0.00,,---,0.00,VWS V14.01,2013-06-02 17:55:00,
2013-06-02 14:00:00,84.1,60.5,29.83,West,270,11.2,16.8,45,0.00,,---,0.00,VWS V14.01,2013-06-02 18:00:00,
2013-06-02 14:05:00,84.1,62.3,29.83,WSW,256,15.9,15.9,48,0.00,,---,0.00,VWS V14.01,2013-06-02 18:05:00,
2013-06-02 14:10:00,85.0,63.1,29.83,SSW,201,10.5,12.1,48,0.00,,---,0.00,VWS V14.01,2013-06-02 18:10:00,
2013-06-02 14:15:00,86.2,63.7,29.83,SW,216,8.7,11.0,47,0.00,,---,0.00,VWS V14.01,2013-06-02 18:15:00,
2013-06-02 14:20:00,85.9,63.3,29.83,SSW,197,4.0,5.8,47,0.00,,---,0.00,VWS V14.01,2013-06-02 18:20:00,
2013-06-02 14:25:00,87.3,64.6,29.83,WSW,243,8.7,8.7,47,0.00,,---,0.00,VWS V14.01,2013-06-02 18:25:00,
2013-06-02 14:30:00,87.9,63.2,29.83,SW,218,6.3,13.0,44,0.00,,---,0.00,VWS V14.01,2013-06-02 18:30:00,
2013-06-02 14:35:00,87.9,61.9,29.83,WSW,252,4.9,12.1,42,0.00,,---,0.00,VWS V14.01,2013-06-02 18:35:00,
2013-06-02 14:40:00,86.1,62.3,29.83,SSW,212,4.9,15.9,45,0.00,,---,0.00,VWS V14.01,2013-06-02 18:40:00,
2013-06-02 14:45:00,88.6,63.9,29.83,WSW,238,6.3,7.4,44,0.00,,---,0.00,VWS V14.01,2013-06-02 18:45:00,
2013-06-02 14:50:00,89.1,63.1,29.83,WNW,292,4.5,8.3,42,0.00,,---,0.00,VWS V14.01,2013-06-02 18:50:00,
2013-06-02 14:55:00,90.9,66.0,29.83,NW,312,4.0,6.9,44,0.00,,---,0.00,VWS V14.01,2013-06-02 18:55:00,
2013-06-02 15:00:00,89.1,63.1,29.83,SW,217,3.1,6.9,42,0.00,,---,0.00,VWS V14.01,2013-06-02 19:00:00,
2013-06-02 15:05:00,87.9,61.9,29.83,WSW,246,6.9,7.8,42,0.00,,---,0.00,VWS V14.01,2013-06-02 19:05:00,
2013-06-02 15:10:00,87.3,61.4,29.83,WSW,258,7.8,10.1,42,0.00,,---,0.00,VWS V14.01,2013-06-02 19:10:00,
2013-06-02 15:15:00,85.3,60.3,29.83,WSW,244,9.6,11.0,43,0.00,,---,0.00,VWS V14.01,2013-06-02 19:15:00,
2013-06-02 15:20:00,84.8,59.8,29.80,West,269,7.8,9.2,43,0.00,,---,0.00,VWS V14.01,2013-06-02 19:20:00,
2013-06-02 15:25:00,83.9,59.0,29.80,WSW,237,11.0,13.0,43,0.00,,---,0.00,VWS V14.01,2013-06-02 19:25:00,
2013-06-02 15:30:00,83.4,58.5,29.80,West,266,4.9,6.9,43,0.00,,---,0.00,VWS V14.01,2013-06-02 19:30:00,
2013-06-02 15:35:00,85.2,61.5,29.80,West,271,8.3,10.1,45,0.00,,---,0.00,VWS V14.01,2013-06-02 19:35:00,
2013-06-02 15:40:00,84.1,59.2,29.80,WSW,257,8.3,11.6,43,0.00,,---,0.00,VWS V14.01,2013-06-02 19:40:00,
2013-06-02 15:45:00,84.3,60.6,29.80,WNW,288,7.4,9.6,45,0.00,,---,0.00,VWS V14.01,2013-06-02 19:45:00,
2013-06-02 15:50:00,85.3,61.6,29.83,WSW,242,6.7,6.7,45,0.00,,---,0.00,VWS V14.01,2013-06-02 19:50:00,
2013-06-02 15:55:00,87.7,63.1,29.83,West,278,11.0,11.2,44,0.00,,---,0.00,VWS V14.01,2013-06-02 19:55:00,
2013-06-02 16:00:00,88.2,63.6,29.83,West,270,7.8,7.8,44,0.00,,---,0.00,VWS V14.01,2013-06-02 20:00:00,
2013-06-02 16:05:00,87.9,63.2,29.80,West,277,10.1,10.1,44,0.00,,---,0.00,VWS V14.01,2013-06-02 20:05:00,
2013-06-02 16:10:00,85.9,60.2,29.80,WSW,258,9.6,13.0,42,0.00,,---,0.00,VWS V14.01,2013-06-02 20:10:00,
2013-06-02 16:15:00,86.2,60.5,29.80,West,278,3.1,4.5,42,0.00,,---,0.00,VWS V14.01,2013-06-02 20:15:00,
2013-06-02 16:20:00,85.2,60.2,29.80,West,269,10.1,10.1,43,0.00,,---,0.00,VWS V14.01,2013-06-02 20:20:00,
2013-06-02 16:25:00,85.5,60.5,29.80,West,264,6.7,7.4,43,0.00,,---,0.00,VWS V14.01,2013-06-02 20:25:00,
2013-06-02 16:30:00,86.2,62.4,29.80,WSW,252,10.5,10.5,45,0.00,,---,0.00,VWS V14.01,2013-06-02 20:30:00,
2013-06-02 16:35:00,85.9,62.1,29.83,WSW,247,7.4,10.5,45,0.00,,---,0.00,VWS V14.01,2013-06-02 20:35:00,
2013-06-02 16:40:00,85.3,61.6,29.83,WSW,241,5.8,5.8,45,0.00,,---,0.00,VWS V14.01,2013-06-02 20:40:00,
2013-06-02 16:45:00,84.1,60.5,29.83,WSW,249,5.4,5.4,45,0.00,,---,0.00,VWS V14.01,2013-06-02 20:45:00,
2013-06-02 16:50:00,83.5,60.6,29.80,WSW,253,10.5,10.5,46,0.00,,---,0.00,VWS V14.01,2013-06-02 20:50:00,
2013-06-02 16:55:00,85.2,61.5,29.80,SSW,204,3.1,4.9,45,0.00,,---,0.00,VWS V14.01,2013-06-02 20:55:00,
2013-06-02 17:00:00,84.8,61.1,29.80,SSW,206,5.8,6.3,45,0.00,,---,0.00,VWS V14.01,2013-06-02 21:00:00,
2013-06-02 17:05:00,83.9,60.9,29.80,WNW,292,3.6,7.4,46,0.00,,---,0.00,VWS V14.01,2013-06-02 21:05:00,
2013-06-02 17:10:00,83.4,60.4,29.80,SW,224,4.5,6.3,46,0.00,,---,0.00,VWS V14.01,2013-06-02 21:10:00,
2013-06-02 17:15:00,82.1,59.3,29.80,WSW,256,6.7,8.3,46,0.00,,---,0.00,VWS V14.01,2013-06-02 21:15:00,
2013-06-02 17:20:00,81.6,58.8,29.80,SW,236,5.8,9.2,46,0.00,,---,0.00,VWS V14.01,2013-06-02 21:20:00,
2013-06-02 17:25:00,82.3,59.5,29.80,WSW,245,5.8,6.3,46,0.00,,---,0.00,VWS V14.01,2013-06-02 21:25:00,
2013-06-02 17:30:00,82.3,60.7,29.80,SW,220,4.5,6.9,48,0.00,,---,0.00,VWS V14.01,2013-06-02 21:30:00,
2013-06-02 17:35:00,81.2,58.5,29.80,WSW,237,11.2,11.2,46,0.00,,---,0.00,VWS V14.01,2013-06-02 21:35:00,
2013-06-02 17:40:00,81.2,58.5,29.80,West,259,10.1,11.2,46,0.00,,---,0.00,VWS V14.01,2013-06-02 21:40:00,
2013-06-02 17:45:00,81.4,56.8,29.80,WSW,244,6.7,11.2,43,0.00,,---,0.00,VWS V14.01,2013-06-02 21:45:00,
2013-06-02 17:50:00,82.3,57.6,29.80,WSW,254,7.8,11.0,43,0.00,,---,0.00,VWS V14.01,2013-06-02 21:50:00,
2013-06-02 17:55:00,82.6,57.9,29.80,WSW,252,8.7,12.1,43,0.00,,---,0.00,VWS V14.01,2013-06-02 21:55:00,
2013-06-02 18:00:00,82.6,57.9,29.80,West,263,6.9,7.8,43,0.00,,---,0.00,VWS V14.01,2013-06-02 22:00:00,
2013-06-02 18:05:00,81.9,57.2,29.80,WSW,252,7.8,8.3,43,0.00,,---,0.00,VWS V14.01,2013-06-02 22:05:00,
2013-06-02 18:10:00,81.2,56.6,29.80,WSW,255,5.8,8.7,43,0.00,,---,0.00,VWS V14.01,2013-06-02 22:10:00,
2013-06-02 18:15:00,80.5,56.0,29.80,WSW,243,5.4,8.3,43,0.00,,---,0.00,VWS V14.01,2013-06-02 22:15:00,
2013-06-02 18:20:00,80.1,56.3,29.80,SSW,198,6.9,10.5,44,0.00,,---,0.00,VWS V14.01,2013-06-02 22:20:00,
2013-06-02 18:25:00,80.3,56.4,29.80,WSW,242,8.7,8.7,44,0.00,,---,0.00,VWS V14.01,2013-06-02 22:25:00,
2013-06-02 18:30:00,80.5,56.0,29.80,WSW,256,0.0,4.9,43,0.00,,---,0.00,VWS V14.01,2013-06-02 22:30:00,
2013-06-02 18:35:00,80.3,56.4,29.80,West,259,6.3,6.3,44,0.00,,---,0.00,VWS V14.01,2013-06-02 22:35:00,
2013-06-02 18:40:00,80.1,56.3,29.80,WNW,283,7.4,9.2,44,0.00,,---,0.00,VWS V14.01,2013-06-02 22:40:00,
2013-06-02 18:45:00,79.8,55.9,29.80,West,260,8.3,10.1,44,0.00,,---,0.00,VWS V14.01,2013-06-02 22:45:00,
2013-06-02 18:50:00,79.4,55.6,29.80,WSW,240,5.8,7.4,44,0.00,,---,0.00,VWS V14.01,2013-06-02 22:50:00,
2013-06-02 18:55:00,79.0,55.3,29.80,WSW,247,6.3,7.8,44,0.00,,---,0.00,VWS V14.01,2013-06-02 22:55:00,
2013-06-02 19:00:00,78.7,55.0,29.80,WSW,239,4.5,4.9,44,0.00,,---,0.00,VWS V14.01,2013-06-02 23:00:00,
2013-06-02 19:05:00,78.5,54.8,29.80,WSW,238,10.1,10.1,44,0.00,,---,0.00,VWS V14.01,2013-06-02 23:05:00,
2013-06-02 19:10:00,78.1,54.5,29.80,WSW,238,6.3,7.8,44,0.00,,---,0.00,VWS V14.01,2013-06-02 23:10:00,
2013-06-02 19:15:00,78.0,54.3,29.80,SW,215,3.6,3.6,44,0.00,,---,0.00,VWS V14.01,2013-06-02 23:15:00,
2013-06-02 19:20:00,77.8,54.2,29.80,West,272,4.9,7.4,44,0.00,,---,0.00,VWS V14.01,2013-06-02 23:20:00,
2013-06-02 19:25:00,77.4,53.8,29.80,West,280,3.6,4.9,44,0.00,,---,0.00,VWS V14.01,2013-06-02 23:25:00,
2013-06-02 19:30:00,77.1,53.5,29.80,West,264,4.5,4.5,44,0.00,,---,0.00,VWS V14.01,2013-06-02 23:30:00,
2013-06-02 19:35:00,76.9,53.3,29.83,WSW,243,4.5,5.4,44,0.00,,---,0.00,VWS V14.01,2013-06-02 23:35:00,
2013-06-02 19:40:00,76.5,53.6,29.83,West,266,4.9,5.8,45,0.00,,---,0.00,VWS V14.01,2013-06-02 23:40:00,
2013-06-02 19:45:00,76.3,53.5,29.83,WSW,249,4.5,4.5,45,0.00,,---,0.00,VWS V14.01,2013-06-02 23:45:00,
2013-06-02 19:50:00,76.2,53.3,29.83,West,268,4.0,5.4,45,0.00,,---,0.00,VWS V14.01,2013-06-02 23:50:00,
2013-06-02 19:55:00,75.8,53.0,29.83,SW,235,3.6,4.9,45,0.00,,---,0.00,VWS V14.01,2013-06-02 23:55:00,
2013-06-02 20:00:00,75.4,52.6,29.83,WSW,239,5.4,5.8,45,0.00,,---,0.00,VWS V14.01,2013-06-03 00:00:00,
2013-06-02 20:05:00,75.3,52.5,29.83,WSW,243,3.1,4.0,45,0.00,,---,0.00,VWS V14.01,2013-06-03 00:05:00,
2013-06-02 20:10:00,74.9,52.2,29.83,WSW,253,2.7,4.5,45,0.00,,---,0.00,VWS V14.01,2013-06-03 00:10:00,
2013-06-02 20:15:00,74.5,53.6,29.83,West,273,0.0,0.0,48,0.00,,---,0.00,VWS V14.01,2013-06-03 00:15:00,
2013-06-02 20:20:00,74.0,53.1,29.83,WNW,288,0.0,0.0,48,0.00,,---,0.00,VWS V14.01,2013-06-03 00:20:00,
2013-06-02 20:25:00,73.3,53.5,29.83,WNW,301,0.0,0.0,50,0.00,,---,0.00,VWS V14.01,2013-06-03 00:25:00,
2013-06-02 20:30:00,72.9,54.8,29.83,WNW,301,0.0,0.0,53,0.00,,---,0.00,VWS V14.01,2013-06-03 00:30:00,
2013-06-02 20:35:00,72.4,55.3,29.83,WNW,301,0.0,0.0,55,0.00,,---,0.00,VWS V14.01,2013-06-03 00:35:00,
2013-06-02 20:40:00,71.8,55.3,29.83,WNW,301,0.0,0.0,56,0.00,,---,0.00,VWS V14.01,2013-06-03 00:40:00,
2013-06-02 20:45:00,71.5,56.9,29.83,NW,309,0.0,3.1,60,0.00,,---,0.00,VWS V14.01,2013-06-03 00:45:00,
2013-06-02 20:50:00,70.9,56.8,29.83,NW,317,3.6,3.6,61,0.00,,---,0.00,VWS V14.01,2013-06-03 00:50:00,
2013-06-02 20:55:00,70.6,56.5,29.83,NW,315,0.0,3.6,61,0.00,,---,0.00,VWS V14.01,2013-06-03 00:55:00,
2013-06-02 21:00:00,70.2,56.6,29.83,WNW,293,0.0,0.0,62,0.00,,---,0.00,VWS V14.01,2013-06-03 01:00:00,
2013-06-02 21:05:00,69.9,55.8,29.83,West,262,2.7,3.6,61,0.00,,---,0.00,VWS V14.01,2013-06-03 01:05:00,
2013-06-02 21:10:00,69.7,55.7,29.83,WSW,241,0.0,0.0,61,0.00,,---,0.00,VWS V14.01,2013-06-03 01:10:00,
2013-06-02 21:15:00,69.5,55.0,29.83,WSW,242,3.6,4.0,60,0.00,,---,0.00,VWS V14.01,2013-06-03 01:15:00,
2013-06-02 21:20:00,69.9,53.0,29.83,SW,225,3.1,3.6,55,0.00,,---,0.00,VWS V14.01,2013-06-03 01:20:00,
2013-06-02 21:25:00,70.0,52.7,29.83,SSW,205,4.0,5.4,54,0.00,,---,0.00,VWS V14.01,2013-06-03 01:25:00,
2013-06-02 21:30:00,70.2,52.8,29.83,SW,236,4.0,4.0,54,0.00,,---,0.00,VWS V14.01,2013-06-03 01:30:00,
2013-06-02 21:35:00,70.6,52.6,29.83,West,271,4.5,6.3,53,0.00,,---,0.00,VWS V14.01,2013-06-03 01:35:00,
2013-06-02 21:40:00,70.9,53.0,29.83,NNW,332,4.9,4.9,53,0.00,,---,0.00,VWS V14.01,2013-06-03 01:40:00,
2013-06-02 21:45:00,70.9,53.0,29.83,SW,235,4.0,4.5,53,0.00,,---,0.00,VWS V14.01,2013-06-03 01:45:00,
2013-06-02 21:50:00,70.9,53.0,29.83,WSW,245,3.6,4.0,53,0.00,,---,0.00,VWS V14.01,2013-06-03 01:50:00,
2013-06-02 21:55:00,70.9,53.0,29.83,West,279,3.6,4.5,53,0.00,,---,0.00,VWS V14.01,2013-06-03 01:55:00,
2013-06-02 22:00:00,70.6,53.2,29.83,West,260,0.0,0.0,54,0.00,,---,0.00,VWS V14.01,2013-06-03 02:00:00,
2013-06-02 22:05:00,70.0,54.6,29.83,NNW,330,0.0,0.0,58,0.00,,---,0.00,VWS V14.01,2013-06-03 02:05:00,
2013-06-02 22:10:00,69.1,55.1,29.83,NNW,330,0.0,0.0,61,0.00,,---,0.00,VWS V14.01,2013-06-03 02:10:00,
2013-06-02 22:15:00,68.8,55.2,29.83,WSW,253,0.0,3.1,62,0.00,,---,0.00,VWS V14.01,2013-06-03 02:15:00,
2013-06-02 22:20:00,68.6,55.1,29.83,WSW,253,0.0,0.0,62,0.00,,---,0.00,VWS V14.01,2013-06-03 02:20:00,
2013-06-02 22:25:00,68.6,55.1,29.83,WSW,253,0.0,0.0,62,0.00,,---,0.00,VWS V14.01,2013-06-03 02:25:00,
2013-06-02 22:30:00,68.4,54.9,29.83,WSW,253,0.0,0.0,62,0.00,,---,0.00,VWS V14.01,2013-06-03 02:30:00,
2013-06-02 22:35:00,68.2,54.7,29.83,WSW,253,0.0,0.0,62,0.00,,---,0.00,VWS V14.01,2013-06-03 02:35:00,
2013-06-02 22:40:00,68.4,54.5,29.83,WSW,255,2.7,3.6,61,0.00,,---,0.00,VWS V14.01,2013-06-03 02:40:00,
2013-06-02 22:45:00,68.6,54.6,29.83,West,280,6.3,6.3,61,0.00,,---,0.00,VWS V14.01,2013-06-03 02:45:00,
2013-06-02 22:50:00,69.0,54.0,29.83,West,267,0.0,2.7,59,0.00,,---,0.00,VWS V14.01,2013-06-03 02:50:00,
2013-06-02 22:55:00,69.0,54.5,29.83,NW,305,4.0,4.0,60,0.00,,---,0.00,VWS V14.01,2013-06-03 02:55:00,
2013-06-02 23:00:00,68.8,54.8,29.83,NNW,344,6.3,9.2,61,0.00,,---,0.00,VWS V14.01,2013-06-03 03:00:00,
2013-06-02 23:05:00,68.8,54.8,29.86,WNW,291,0.0,0.0,61,0.00,,---,0.00,VWS V14.01,2013-06-03 03:05:00,
2013-06-02 23:10:00,69.0,54.0,29.86,NW,306,3.6,4.9,59,0.00,,---,0.00,VWS V14.01,2013-06-03 03:10:00,
2013-06-02 23:15:00,68.8,55.2,29.86,NW,306,0.0,0.0,62,0.00,,---,0.00,VWS V14.01,2013-06-03 03:15:00,
2013-06-02 23:20:00,68.2,54.7,29.86,WSW,250,0.0,0.0,62,0.00,,---,0.00,VWS V14.01,2013-06-03 03:20:00,
2013-06-02 23:25:00,68.1,55.0,29.86,WNW,302,0.0,0.0,63,0.00,,---,0.00,VWS V14.01,2013-06-03 03:25:00,
2013-06-02 23:30:00,67.5,54.9,29.86,WNW,300,0.0,0.0,64,0.00,,---,0.00,VWS V14.01,2013-06-03 03:30:00,
2013-06-02 23:35:00,67.2,55.0,29.86,WNW,295,0.0,0.0,65,0.00,,---,0.00,VWS V14.01,2013-06-03 03:35:00,
2013-06-02 23:40:00,67.0,54.8,29.86,West,262,0.0,0.0,65,0.00,,---,0.00,VWS V14.01,2013-06-03 03:40:00,
2013-06-02 23:45:00,66.8,54.7,29.86,West,261,0.0,0.0,65,0.00,,---,0.00,VWS V14.01,2013-06-03 03:45:00,
2013-06-02 23:50:00,66.6,54.5,29.86,West,262,0.0,0.0,65,0.00,,---,0.00,VWS V14.01,2013-06-03 03:50:00,
2013-06-02 23:55:00,66.4,54.8,29.86,West,261,0.0,0.0,66,0.00,,---,0.00,VWS V14.01,2013-06-03 03:55:00,